Orbital elements of SL-14 DEB
| Launched | 27 September 1991 |
| Flight ended | – |
| Launch site | Plesetsk Missile and Space Complex, Russia |
| Owner | Commonwealth of Independent States (former USSR) |
| NORAD ID | 26015 |
| Date fetched |
Epoch osculation |
Inc. [°] |
Ecc. | RA asc node [hr] |
Arg Peri. [°] |
Mean anom [°] |
Mean motion [rev/day] |
Abs. mag |
| Date fetched |
Epoch osculation |
Inc. [°] |
Ecc. | RA asc node [hr] |
Arg Peri. [°] |
Mean anom [°] |
Mean motion [rev/day] |
Abs. mag |
| 2026 May 04 17:57 | 2026 Apr 30 12:53:36 | 82.4771 | 0.00670 | 20.4907 | 278.2093 | 110.1238 | 12.62318 | – |
| 2026 May 03 17:57 | 2026 Apr 30 12:53:36 | 82.4771 | 0.00670 | 20.4907 | 278.2093 | 110.1238 | 12.62318 | – |
| 2026 May 02 17:57 | 2026 Apr 30 12:53:36 | 82.4771 | 0.00670 | 20.4907 | 278.2093 | 110.1238 | 12.62318 | – |
| 2026 May 01 17:56 | 2026 Apr 30 12:53:36 | 82.4771 | 0.00670 | 20.4907 | 278.2093 | 110.1238 | 12.62318 | – |
| 2026 Apr 30 17:56 | 2026 Apr 30 12:53:36 | 82.4771 | 0.00670 | 20.4907 | 278.2093 | 110.1238 | 12.62318 | – |
| 2026 Apr 29 17:57 | 2026 Apr 23 23:40:29 | 82.4777 | 0.00671 | 20.7733 | 293.2681 | 110.1238 | 12.62318 | – |
| 2026 Apr 28 17:56 | 2026 Apr 23 23:40:29 | 82.4777 | 0.00671 | 20.7733 | 293.2681 | 110.1238 | 12.62318 | – |
| 2026 Apr 27 17:58 | 2026 Apr 23 23:40:29 | 82.4777 | 0.00671 | 20.7733 | 293.2681 | 110.1238 | 12.62318 | – |
| 2026 Apr 26 17:58 | 2026 Apr 23 23:40:29 | 82.4777 | 0.00671 | 20.7733 | 293.2681 | 110.1238 | 12.62318 | – |
| 2026 Apr 25 17:58 | 2026 Apr 23 23:40:29 | 82.4777 | 0.00671 | 20.7733 | 293.2681 | 110.1238 | 12.62318 | – |
| 2026 Apr 24 17:59 | 2026 Apr 23 23:40:29 | 82.4777 | 0.00671 | 20.7733 | 293.2681 | 110.1238 | 12.62318 | – |
| 2026 Apr 23 17:57 | 2026 Apr 19 12:28:14 | 82.4782 | 0.00672 | 20.9659 | 303.5242 | 110.1238 | 12.62318 | – |
| 2026 Apr 22 17:57 | 2026 Apr 19 12:28:14 | 82.4782 | 0.00672 | 20.9659 | 303.5242 | 110.1238 | 12.62318 | – |
| 2026 Apr 21 17:57 | 2026 Apr 19 12:28:14 | 82.4782 | 0.00672 | 20.9659 | 303.5242 | 110.1238 | 12.62318 | – |
| 2026 Apr 20 17:57 | 2026 Apr 19 12:28:14 | 82.4782 | 0.00672 | 20.9659 | 303.5242 | 110.1238 | 12.62318 | – |
| 2026 Apr 19 17:58 | 2026 Apr 19 12:28:14 | 82.4782 | 0.00672 | 20.9659 | 303.5242 | 110.1238 | 12.62318 | – |
| 2026 Apr 18 17:56 | 2026 Apr 13 01:10:41 | 82.4793 | 0.00674 | 21.2449 | 318.3213 | 110.1238 | 12.62318 | – |
| 2026 Apr 16 17:57 | 2026 Apr 13 01:10:41 | 82.4793 | 0.00674 | 21.2449 | 318.3213 | 110.1238 | 12.62318 | – |
| 2026 Apr 14 17:57 | 2026 Apr 13 01:10:41 | 82.4793 | 0.00674 | 21.2449 | 318.3213 | 110.1238 | 12.62318 | – |
| 2026 Apr 13 17:57 | 2026 Apr 13 01:10:41 | 82.4793 | 0.00674 | 21.2449 | 318.3213 | 110.1238 | 12.62318 | – |
| 2026 Apr 12 17:57 | 2026 Apr 08 09:06:49 | 82.4800 | 0.00677 | 21.4463 | 328.9447 | 110.1238 | 12.62318 | – |
| 2026 Apr 11 17:57 | 2026 Apr 08 09:06:49 | 82.4800 | 0.00677 | 21.4463 | 328.9447 | 110.1238 | 12.62318 | – |
| 2026 Apr 10 17:58 | 2026 Apr 08 09:06:49 | 82.4800 | 0.00677 | 21.4463 | 328.9447 | 110.1238 | 12.62318 | – |
| 2026 Apr 09 18:01 | 2026 Apr 08 09:06:49 | 82.4800 | 0.00677 | 21.4463 | 328.9447 | 110.1238 | 12.62318 | – |
| 2026 Apr 08 17:57 | 2026 Apr 08 09:06:49 | 82.4800 | 0.00677 | 21.4463 | 328.9447 | 110.1238 | 12.62318 | – |
| 2026 Apr 07 17:57 | 2026 Apr 02 02:39:41 | 82.4814 | 0.00679 | 21.7165 | 343.1630 | 110.1238 | 12.62318 | – |